Terminal Aerodrome Forecast
Issued by NWS

Home | Current Version | Previous Version | Text Only | Print | Product List | Glossary On
Versions: 1 2 3 4 5 6 7 8 9 10 11 12
462
FTUS43 KJKL 251729
TAFSJS
TAF
KSJS 251729Z 2518/2618 VRB04KT P6SM FEW250
     FM261000 00000KT P6SM SCT050
     FM261500 VRB03KT P6SM BKN045=

USA.gov is the U.S. government's official web portal to all federal, state and local government web resources and services.